createdAt,value
2018-06-09T00:00:22.256Z,1007.98
2018-06-09T00:01:22.283Z,1008.01
2018-06-09T00:02:22.312Z,1007.97
2018-06-09T00:03:22.338Z,1007.97
2018-06-09T00:04:22.359Z,1007.98
2018-06-09T00:05:22.388Z,1007.96
2018-06-09T00:06:22.410Z,1008.01
2018-06-09T00:07:22.439Z,1007.99
2018-06-09T00:08:22.465Z,1008.01
2018-06-09T00:09:22.490Z,1008.03
2018-06-09T00:10:22.512Z,1008.04
2018-06-09T00:11:22.534Z,1008.06
2018-06-09T00:12:22.565Z,1008.04
2018-06-09T00:13:22.590Z,1008.07
2018-06-09T00:15:22.636Z,1008.06
2018-06-09T00:16:22.667Z,1008.06
2018-06-09T00:17:22.688Z,1008.08
2018-06-09T00:18:22.712Z,1008.1
2018-06-09T00:19:22.737Z,1008.07
2018-06-09T00:20:22.767Z,1008.08
2018-06-09T00:21:22.792Z,1008.08
2018-06-09T00:22:22.813Z,1008.09
2018-06-09T00:23:22.842Z,1008.11
2018-06-09T00:24:22.864Z,1008.09
2018-06-09T00:25:22.892Z,1008.09
2018-06-09T00:26:22.914Z,1008.09
2018-06-09T00:27:22.950Z,1008.13
2018-06-09T00:28:22.968Z,1008.11
2018-06-09T00:29:22.989Z,1008.1
2018-06-09T00:31:23.040Z,1008.15
2018-06-09T00:32:23.064Z,1008.12
2018-06-09T00:33:23.093Z,1008.18
2018-06-09T00:34:23.116Z,1008.15
2018-06-09T00:35:23.140Z,1008.16
2018-06-09T00:36:23.165Z,1008.18
2018-06-09T00:37:23.198Z,1008.18
2018-06-09T00:38:23.220Z,1008.19
2018-06-09T00:39:23.241Z,1008.17
2018-06-09T00:40:23.265Z,1008.21
2018-06-09T00:41:23.290Z,1008.22
2018-06-09T00:42:23.321Z,1008.23
2018-06-09T00:43:23.341Z,1008.21
2018-06-09T00:44:23.472Z,1008.22
2018-06-09T00:46:23.418Z,1008.21
2018-06-09T00:47:23.442Z,1008.25
2018-06-09T00:48:23.468Z,1008.24
2018-06-09T00:49:23.497Z,1008.26
2018-06-09T00:50:23.518Z,1008.24
2018-06-09T00:51:23.548Z,1008.25
2018-06-09T00:52:23.567Z,1008.3
2018-06-09T00:53:23.598Z,1008.29
2018-06-09T00:54:23.621Z,1008.3
2018-06-09T00:55:23.644Z,1008.33
2018-06-09T00:56:23.673Z,1008.32
2018-06-09T00:57:23.693Z,1008.33
2018-06-09T00:58:23.718Z,1008.3
2018-06-09T00:59:23.748Z,1008.31
2018-06-09T01:00:23.769Z,1008.32
2018-06-09T01:01:23.798Z,1008.31
2018-06-09T01:02:23.819Z,1008.32
2018-06-09T01:03:23.847Z,1008.36
2018-06-09T01:04:23.869Z,1008.35
2018-06-09T01:05:23.904Z,1008.34
2018-06-09T01:06:23.923Z,1008.35
2018-06-09T01:07:23.948Z,1008.33
2018-06-09T01:08:23.973Z,1008.32
2018-06-09T01:09:23.993Z,1008.34
2018-06-09T01:10:24.023Z,1008.36
2018-06-09T01:11:24.043Z,1008.33
2018-06-09T01:12:24.073Z,1008.38
2018-06-09T01:13:24.098Z,1008.38
2018-06-09T01:14:24.118Z,1008.41
2018-06-09T01:15:24.148Z,1008.4
2018-06-09T01:16:24.168Z,1008.41
2018-06-09T01:18:24.221Z,1008.43
2018-06-09T01:19:24.244Z,1008.42
2018-06-09T01:20:24.266Z,1008.41
2018-06-09T01:21:24.298Z,1008.39
2018-06-09T01:22:24.323Z,1008.35
2018-06-09T01:23:24.344Z,1008.36
2018-06-09T01:24:24.370Z,1008.34
2018-06-09T01:25:24.401Z,1008.37
2018-06-09T01:26:24.418Z,1008.38
2018-06-09T01:27:24.496Z,1008.38
2018-06-09T01:28:24.467Z,1008.39
2018-06-09T01:29:24.493Z,1008.4
2018-06-09T01:30:24.523Z,1008.38
2018-06-09T01:31:24.542Z,1008.43
2018-06-09T01:32:24.572Z,1008.51
2018-06-09T01:34:24.629Z,1008.48
2018-06-09T01:35:24.642Z,1008.5
2018-06-09T01:36:24.667Z,1008.52
2018-06-09T01:37:24.696Z,1008.47
2018-06-09T01:38:24.720Z,1008.53
2018-06-09T01:39:24.745Z,1008.53
2018-06-09T01:40:24.765Z,1008.51
2018-06-09T01:41:24.795Z,1008.51
2018-06-09T01:42:24.815Z,1008.52
2018-06-09T01:43:24.844Z,1008.54
2018-06-09T01:44:24.867Z,1008.5
2018-06-09T01:45:24.895Z,1008.53
2018-06-09T01:46:24.918Z,1008.5
2018-06-09T01:47:24.945Z,1008.53
2018-06-09T01:48:24.962Z,1008.51
2018-06-09T01:50:25.018Z,1008.54
2018-06-09T01:51:25.037Z,1008.51
2018-06-09T01:52:25.067Z,1008.53
2018-06-09T01:53:25.091Z,1008.53
2018-06-09T01:54:25.111Z,1008.57
2018-06-09T01:55:25.141Z,1008.57
2018-06-09T01:56:25.169Z,1008.6
2018-06-09T01:57:25.190Z,1008.59
2018-06-09T01:58:25.211Z,1008.55
2018-06-09T01:59:25.236Z,1008.56
2018-06-09T02:00:25.264Z,1008.58
2018-06-09T02:01:25.286Z,1008.55
2018-06-09T02:02:25.316Z,1008.55
2018-06-09T02:03:25.335Z,1008.56
2018-06-09T02:04:25.364Z,1008.51
2018-06-09T02:06:25.411Z,1008.48
2018-06-09T02:07:25.442Z,1008.53
2018-06-09T02:08:25.459Z,1008.5
2018-06-09T02:09:25.488Z,1008.5
2018-06-09T02:10:25.509Z,1008.43
2018-06-09T02:11:25.537Z,1008.48
2018-06-09T02:12:25.558Z,1008.45
2018-06-09T02:13:25.588Z,1008.43
2018-06-09T02:14:25.607Z,1008.45
2018-06-09T02:15:25.637Z,1008.42
2018-06-09T02:16:25.662Z,1008.45
2018-06-09T02:17:25.686Z,1008.42
2018-06-09T02:18:25.706Z,1008.49
2018-06-09T02:19:25.736Z,1008.5
2018-06-09T02:21:25.786Z,1008.5
2018-06-09T02:22:25.806Z,1008.49
2018-06-09T02:23:25.830Z,1008.46
2018-06-09T02:24:25.856Z,1008.48
2018-06-09T02:25:25.885Z,1008.48
2018-06-09T02:26:25.910Z,1008.49
2018-06-09T02:27:25.930Z,1008.48
2018-06-09T02:28:25.959Z,1008.48
2018-06-09T02:29:25.979Z,1008.48
2018-06-09T02:30:26.012Z,1008.46
2018-06-09T02:31:26.031Z,1008.42
2018-06-09T02:32:26.059Z,1008.43
2018-06-09T02:33:26.078Z,1008.43
2018-06-09T02:34:26.103Z,1008.41
2018-06-09T02:35:26.133Z,1008.36
2018-06-09T02:36:26.158Z,1008.36
2018-06-09T02:37:26.177Z,1008.4
2018-06-09T02:38:26.206Z,1008.4
2018-06-09T02:39:26.226Z,1008.39
2018-06-09T02:40:26.255Z,1008.4
2018-06-09T02:41:26.274Z,1008.45
2018-06-09T02:42:26.310Z,1008.43
2018-06-09T02:43:26.329Z,1008.41
2018-06-09T02:44:26.354Z,1008.37
2018-06-09T02:45:26.374Z,1008.44
2018-06-09T02:46:26.405Z,1008.38
2018-06-09T02:47:26.423Z,1008.4
2018-06-09T02:48:26.452Z,1008.38
2018-06-09T02:49:26.471Z,1008.38
2018-06-09T02:50:26.498Z,1008.39
2018-06-09T02:51:26.521Z,1008.34
2018-06-09T02:53:26.583Z,1008.34
2018-06-09T02:54:26.595Z,1008.27
2018-06-09T02:55:26.623Z,1008.25
2018-06-09T02:56:26.646Z,1008.24
2018-06-09T02:57:26.674Z,1008.23
2018-06-09T02:58:26.696Z,1008.22
2018-06-09T02:59:26.722Z,1008.22
2018-06-09T03:00:26.748Z,1008.2
2018-06-09T03:01:26.771Z,1008.21
2018-06-09T03:02:26.796Z,1008.23
2018-06-09T03:03:26.816Z,1008.23
2018-06-09T03:04:26.841Z,1008.2
2018-06-09T03:05:26.867Z,1008.22
2018-06-09T03:06:26.894Z,1008.18
2018-06-09T03:07:26.918Z,1008.16
2018-06-09T03:09:26.969Z,1008.12
2018-06-09T03:10:26.988Z,1008.1
2018-06-09T03:11:27.015Z,1008.09
2018-06-09T03:12:27.043Z,1008.09
2018-06-09T03:13:27.066Z,1008.13
2018-06-09T03:14:27.088Z,1008.09
2018-06-09T03:15:27.117Z,1008.11
2018-06-09T03:16:27.137Z,1008.13
2018-06-09T03:17:27.166Z,1008.12
2018-06-09T03:18:27.185Z,1008.15
2018-06-09T03:19:27.214Z,1008.14
2018-06-09T03:20:27.233Z,1008.17
2018-06-09T03:21:27.259Z,1008.15
2018-06-09T03:22:27.291Z,1008.18
2018-06-09T03:23:27.313Z,1008.17
2018-06-09T03:25:27.365Z,1008.09
2018-06-09T03:26:27.387Z,1008.07
2018-06-09T03:27:27.407Z,1008.06
2018-06-09T03:28:27.432Z,1008.07
2018-06-09T03:29:27.460Z,1008.02
2018-06-09T03:30:27.481Z,1008.04
2018-06-09T03:31:27.514Z,1008.01
2018-06-09T03:32:27.530Z,1008.02
2018-06-09T03:33:27.560Z,1008
2018-06-09T03:34:27.579Z,1008.01
2018-06-09T03:35:27.604Z,1008.01
2018-06-09T03:36:27.634Z,1008.01
2018-06-09T03:37:27.658Z,1008.03
2018-06-09T03:38:27.684Z,1008.03
2018-06-09T03:39:27.702Z,1008.02
2018-06-09T03:41:27.753Z,1007.96
2018-06-09T03:42:27.782Z,1007.96
2018-06-09T03:43:27.879Z,1008.01
2018-06-09T03:44:27.828Z,1007.99
2018-06-09T03:45:27.850Z,1008
2018-06-09T03:46:27.879Z,1008.03
2018-06-09T03:47:27.906Z,1008.01
2018-06-09T03:48:27.932Z,1007.99
2018-06-09T03:49:27.950Z,1007.98
2018-06-09T03:50:28.028Z,1008
2018-06-09T03:51:27.999Z,1007.94
2018-06-09T03:52:28.029Z,1007.98
2018-06-09T03:53:28.052Z,1008
2018-06-09T03:54:28.079Z,1008
2018-06-09T03:56:28.125Z,1007.99
2018-06-09T03:57:28.153Z,1008.01
2018-06-09T03:58:28.174Z,1007.97
2018-06-09T03:59:28.208Z,1008
2018-06-09T04:00:28.229Z,1008.03
2018-06-09T04:01:28.253Z,1008.07
2018-06-09T04:02:28.278Z,1008.08
2018-06-09T04:03:28.300Z,1008.09
2018-06-09T04:04:28.328Z,1008.06
2018-06-09T04:05:28.348Z,1008.07
2018-06-09T04:06:28.373Z,1008.11
2018-06-09T04:07:28.404Z,1008.11
2018-06-09T04:08:28.428Z,1008.14
2018-06-09T04:09:28.450Z,1008.25
2018-06-09T04:10:28.478Z,1008.36
2018-06-09T04:11:28.498Z,1008.36
2018-06-09T04:12:28.528Z,1008.4
2018-06-09T04:13:28.549Z,1008.42
2018-06-09T04:14:28.579Z,1008.42
2018-06-09T04:15:28.600Z,1008.41
2018-06-09T04:16:28.629Z,1008.43
2018-06-09T04:17:28.656Z,1008.5
2018-06-09T04:18:28.682Z,1008.45
2018-06-09T04:19:28.708Z,1008.49
2018-06-09T04:20:28.731Z,1008.5
2018-06-09T04:21:28.762Z,1008.55
2018-06-09T04:22:28.784Z,1008.55
2018-06-09T04:23:28.809Z,1008.61
2018-06-09T04:24:28.844Z,1008.59
2018-06-09T04:25:28.869Z,1008.61
2018-06-09T04:26:28.897Z,1008.68
2018-06-09T04:28:28.954Z,1008.73
2018-06-09T04:29:28.976Z,1008.64
2018-06-09T04:30:29.005Z,1008.7
2018-06-09T04:31:29.037Z,1008.69
2018-06-09T04:32:29.061Z,1008.7
2018-06-09T04:33:29.096Z,1008.73
2018-06-09T04:34:29.120Z,1008.71
2018-06-09T04:35:29.161Z,1008.68
2018-06-09T04:36:29.180Z,1008.71
2018-06-09T04:37:29.213Z,1008.68
2018-06-09T04:38:29.244Z,1008.59
2018-06-09T04:39:29.268Z,1008.61
2018-06-09T04:40:29.300Z,1008.57
2018-06-09T04:41:29.335Z,1008.51
2018-06-09T04:42:29.361Z,1008.5
2018-06-09T04:44:29.428Z,1008.48
2018-06-09T04:45:29.459Z,1008.44
2018-06-09T04:46:29.486Z,1008.47
2018-06-09T04:47:29.518Z,1008.43
2018-06-09T04:48:29.554Z,1008.44
2018-06-09T04:49:29.582Z,1008.42
2018-06-09T04:50:29.619Z,1008.47
2018-06-09T04:51:29.645Z,1008.45
2018-06-09T04:52:29.683Z,1008.41
2018-06-09T04:53:29.812Z,1008.43
2018-06-09T04:54:29.748Z,1008.45
2018-06-09T04:55:29.778Z,1008.43
2018-06-09T04:56:29.814Z,1008.44
2018-06-09T04:57:29.846Z,1008.44
2018-06-09T04:58:29.925Z,1008.46
2018-06-09T05:00:29.946Z,1008.58
2018-06-09T05:01:29.979Z,1008.53
2018-06-09T05:02:30.016Z,1008.57
2018-06-09T05:03:30.051Z,1008.6
2018-06-09T05:04:30.077Z,1008.65
2018-06-09T05:05:30.114Z,1008.67
2018-06-09T05:06:30.149Z,1008.76
2018-06-09T05:07:30.188Z,1008.8
2018-06-09T05:08:30.213Z,1008.85
2018-06-09T05:09:30.253Z,1008.93
2018-06-09T05:10:30.281Z,1008.9
2018-06-09T05:11:30.314Z,1008.93
2018-06-09T05:12:30.354Z,1008.99
2018-06-09T05:13:30.385Z,1008.96
2018-06-09T05:14:30.423Z,1008.99
2018-06-09T05:16:30.493Z,1008.66
2018-06-09T05:17:30.524Z,1008.81
2018-06-09T05:18:30.560Z,1008.96
2018-06-09T05:19:30.597Z,1008.92
2018-06-09T05:20:30.629Z,1008.91
2018-06-09T05:21:30.669Z,1008.9
2018-06-09T05:22:30.697Z,1008.89
2018-06-09T05:23:30.737Z,1008.9
2018-06-09T05:24:30.777Z,1008.9
2018-06-09T05:25:30.804Z,1008.9
2018-06-09T05:26:30.844Z,1008.89
2018-06-09T05:27:30.875Z,1008.92
2018-06-09T05:28:30.915Z,1008.95
2018-06-09T05:29:30.947Z,1008.94
2018-06-09T05:31:31.018Z,1008.97
2018-06-09T05:32:31.061Z,1008.98
2018-06-09T05:33:31.090Z,1009.01
2018-06-09T05:34:31.125Z,1009.03
2018-06-09T05:35:31.163Z,1009
2018-06-09T05:36:31.201Z,1009.01
2018-06-09T05:37:31.233Z,1008.96
2018-06-09T05:38:31.273Z,1009.04
2018-06-09T05:39:31.308Z,1009.08
2018-06-09T05:40:31.344Z,1009.08
2018-06-09T05:41:31.377Z,1009.03
2018-06-09T05:42:31.414Z,1009.04
2018-06-09T05:43:31.452Z,1009.05
2018-06-09T05:44:31.485Z,1009.05
2018-06-09T05:45:31.526Z,1009.07
2018-06-09T05:46:31.562Z,1009.12
2018-06-09T05:47:31.597Z,1009.09
2018-06-09T05:48:31.629Z,1009.12
2018-06-09T05:49:31.724Z,1009.09
2018-06-09T05:50:31.705Z,1009.07
2018-06-09T05:51:31.737Z,1009.1
2018-06-09T05:52:31.778Z,1009.12
2018-06-09T05:53:31.809Z,1009.13
2018-06-09T05:54:31.850Z,1009.12
2018-06-09T05:55:31.899Z,1009.11
2018-06-09T05:56:31.917Z,1009.16
2018-06-09T05:57:31.959Z,1009.18
2018-06-09T05:58:31.990Z,1009.15
2018-06-09T05:59:32.026Z,1009.21
2018-06-09T06:00:32.069Z,1009.25
2018-06-09T06:01:32.100Z,1009.25
2018-06-09T06:03:32.181Z,1009.13
2018-06-09T06:04:32.208Z,1009.1
2018-06-09T06:05:32.249Z,1009.08
2018-06-09T06:06:32.281Z,1009.01
2018-06-09T06:07:32.322Z,1009.01
2018-06-09T06:08:32.355Z,1009.11
2018-06-09T06:09:32.398Z,1009.05
2018-06-09T06:10:32.433Z,1009.08
2018-06-09T06:11:32.469Z,1009.09
2018-06-09T06:12:32.501Z,1009.11
2018-06-09T06:13:32.541Z,1009.08
2018-06-09T06:14:32.574Z,1009.06
2018-06-09T06:15:32.615Z,1009.06
2018-06-09T06:16:32.648Z,1009.02
2018-06-09T06:17:32.688Z,1009
2018-06-09T06:19:32.763Z,1009.04
2018-06-09T06:20:32.799Z,1009.01
2018-06-09T06:21:32.837Z,1009.09
2018-06-09T06:22:32.869Z,1009.1
2018-06-09T06:23:32.904Z,1009.12
2018-06-09T06:24:32.947Z,1009.13
2018-06-09T06:25:32.980Z,1009.17
2018-06-09T06:26:33.024Z,1009.22
2018-06-09T06:27:33.053Z,1009.23
2018-06-09T06:28:33.090Z,1009.21
2018-06-09T06:29:33.130Z,1009.21
2018-06-09T06:30:33.168Z,1009.2
2018-06-09T06:31:33.199Z,1009.18
2018-06-09T06:32:33.291Z,1009.23
2018-06-09T06:33:33.275Z,1009.2
2018-06-09T06:35:33.351Z,1009.22
2018-06-09T06:36:33.388Z,1009.25
2018-06-09T06:37:33.427Z,1009.29
2018-06-09T06:38:33.457Z,1009.28
2018-06-09T06:39:33.499Z,1009.3
2018-06-09T06:40:33.531Z,1009.32
2018-06-09T06:41:33.571Z,1009.34
2018-06-09T06:42:33.606Z,1009.39
2018-06-09T06:43:33.651Z,1009.44
2018-06-09T06:44:33.685Z,1009.32
2018-06-09T06:45:33.719Z,1009.27
2018-06-09T06:46:33.760Z,1009.37
2018-06-09T06:47:33.793Z,1009.36
2018-06-09T06:48:33.836Z,1009.38
2018-06-09T06:49:33.867Z,1009.45
2018-06-09T06:51:33.947Z,1009.54
2018-06-09T06:52:33.986Z,1009.53
2018-06-09T06:53:34.018Z,1009.53
2018-06-09T06:54:34.060Z,1009.55
2018-06-09T06:55:34.094Z,1009.51
2018-06-09T06:56:34.155Z,1009.54
2018-06-09T06:57:34.168Z,1009.53
2018-06-09T06:58:34.211Z,1009.57
2018-06-09T06:59:34.245Z,1009.65
2018-06-09T07:00:34.287Z,1009.84
2018-06-09T07:01:34.325Z,1009.87
2018-06-09T07:02:34.364Z,1009.84
2018-06-09T07:03:34.399Z,1009.89
2018-06-09T07:04:34.494Z,1009.9
2018-06-09T07:06:34.515Z,1009.84
2018-06-09T07:07:34.556Z,1009.86
2018-06-09T07:08:34.592Z,1009.95
2018-06-09T07:09:34.639Z,1009.89
2018-06-09T07:10:34.668Z,1009.93
2018-06-09T07:11:34.706Z,1009.94
2018-06-09T07:12:34.746Z,1009.97
2018-06-09T07:13:34.809Z,1009.96
2018-06-09T07:14:34.828Z,1009.9
2018-06-09T07:15:34.862Z,1009.93
2018-06-09T07:16:34.905Z,1009.98
2018-06-09T07:17:34.940Z,1009.96
2018-06-09T07:18:34.978Z,1009.95
2018-06-09T07:19:35.027Z,1009.98
2018-06-09T07:20:35.061Z,1010.03
2018-06-09T07:21:35.095Z,1010.08
2018-06-09T07:22:35.137Z,1010.02
2018-06-09T07:23:35.172Z,1010.14
2018-06-09T07:24:35.215Z,1010.22
2018-06-09T07:25:35.249Z,1010.24
2018-06-09T07:26:35.295Z,1010.31
2018-06-09T07:27:35.328Z,1010.37
2018-06-09T07:28:35.366Z,1010.38
2018-06-09T07:29:35.409Z,1010.42
2018-06-09T07:30:35.448Z,1010.48
2018-06-09T07:31:35.487Z,1010.52
2018-06-09T07:32:35.523Z,1010.58
2018-06-09T07:33:35.565Z,1010.55
2018-06-09T07:34:35.599Z,1010.56
2018-06-09T07:35:35.643Z,1010.55
2018-06-09T07:36:35.677Z,1010.62
2018-06-09T07:38:35.760Z,1010.68
2018-06-09T07:39:35.797Z,1010.71
2018-06-09T07:40:35.836Z,1010.71
2018-06-09T07:41:35.872Z,1010.69
2018-06-09T07:42:35.910Z,1010.73
2018-06-09T07:43:35.950Z,1010.72
2018-06-09T07:44:35.996Z,1010.68
2018-06-09T07:45:36.032Z,1010.62
2018-06-09T07:46:36.068Z,1010.6
2018-06-09T07:47:36.110Z,1010.62
2018-06-09T07:48:36.149Z,1010.58
2018-06-09T07:49:36.185Z,1010.57
2018-06-09T07:50:36.228Z,1010.56
2018-06-09T07:51:36.265Z,1010.49
2018-06-09T07:52:36.306Z,1010.41
2018-06-09T07:54:36.386Z,1010.34
2018-06-09T07:55:36.429Z,1010.29
2018-06-09T07:56:36.469Z,1010.22
2018-06-09T07:57:36.501Z,1010.18
2018-06-09T07:58:36.535Z,1010.15
2018-06-09T07:59:36.609Z,1010.09
2018-06-09T08:00:36.613Z,1010.03
2018-06-09T08:01:36.657Z,1010.01
2018-06-09T08:02:36.691Z,1009.98
2018-06-09T08:03:36.735Z,1009.93
2018-06-09T08:04:36.770Z,1009.91
2018-06-09T08:05:36.809Z,1009.9
2018-06-09T08:06:36.852Z,1009.9
2018-06-09T08:07:36.987Z,1009.83
2018-06-09T08:08:36.930Z,1009.84
2018-06-09T08:10:37.008Z,1009.86
2018-06-09T08:11:37.043Z,1009.8
2018-06-09T08:12:37.081Z,1009.74
2018-06-09T08:13:37.120Z,1009.76
2018-06-09T08:14:37.163Z,1009.76
2018-06-09T08:15:37.199Z,1009.74
2018-06-09T08:16:37.241Z,1009.75
2018-06-09T08:17:37.280Z,1009.7
2018-06-09T08:18:37.320Z,1009.65
2018-06-09T08:19:37.356Z,1009.64
2018-06-09T08:20:37.396Z,1009.66
2018-06-09T08:21:37.431Z,1009.67
2018-06-09T08:22:37.476Z,1009.69
2018-06-09T08:23:37.510Z,1009.6
2018-06-09T08:24:37.553Z,1009.56
2018-06-09T08:26:37.626Z,1009.45
2018-06-09T08:27:37.666Z,1009.4
2018-06-09T08:28:37.706Z,1009.44
2018-06-09T08:29:37.748Z,1009.43
2018-06-09T08:30:37.783Z,1009.47
2018-06-09T08:31:37.824Z,1009.42
2018-06-09T08:32:37.859Z,1009.42
2018-06-09T08:33:37.902Z,1009.5
2018-06-09T08:34:37.937Z,1009.42
2018-06-09T08:35:37.979Z,1009.32
2018-06-09T08:36:38.038Z,1009.24
2018-06-09T08:37:38.057Z,1009.24
2018-06-09T08:38:38.096Z,1009.21
2018-06-09T08:39:38.134Z,1009.18
2018-06-09T08:41:38.209Z,1009.26
2018-06-09T08:42:38.250Z,1009.37
2018-06-09T08:43:38.290Z,1009.39
2018-06-09T08:44:38.325Z,1009.39
2018-06-09T08:45:38.365Z,1009.42
2018-06-09T08:46:38.405Z,1009.44
2018-06-09T08:47:38.439Z,1009.29
2018-06-09T08:48:38.482Z,1009.12
2018-06-09T08:49:38.520Z,1009.08
2018-06-09T08:50:38.563Z,1009.04
2018-06-09T08:51:38.592Z,1009.01
2018-06-09T08:52:38.631Z,1009.03
2018-06-09T08:53:38.672Z,1009.01
2018-06-09T08:54:38.766Z,1009
2018-06-09T08:55:38.749Z,1008.96
2018-06-09T08:56:38.784Z,1009
2018-06-09T08:57:38.824Z,1008.92
2018-06-09T08:58:38.858Z,1008.93
2018-06-09T08:59:38.901Z,1008.95
2018-06-09T09:00:38.933Z,1008.89
2018-06-09T09:01:38.976Z,1008.89
2018-06-09T09:02:39.010Z,1008.92
2018-06-09T09:03:39.052Z,1008.91
2018-06-09T09:04:39.085Z,1008.89
2018-06-09T09:05:39.124Z,1008.84
2018-06-09T09:06:39.165Z,1008.88
2018-06-09T09:07:39.203Z,1008.82
2018-06-09T09:08:39.235Z,1008.85
2018-06-09T09:09:39.277Z,1008.81
2018-06-09T09:10:39.310Z,1008.81
2018-06-09T09:11:39.352Z,1008.83
2018-06-09T09:13:39.423Z,1008.82
2018-06-09T09:14:39.461Z,1008.86
2018-06-09T09:15:39.497Z,1008.8
2018-06-09T09:16:39.539Z,1008.82
2018-06-09T09:17:39.572Z,1008.82
2018-06-09T09:18:39.614Z,1008.76
2018-06-09T09:19:39.650Z,1008.8
2018-06-09T09:20:39.683Z,1008.83
2018-06-09T09:21:39.725Z,1008.82
2018-06-09T09:22:39.758Z,1008.8
2018-06-09T09:23:39.799Z,1008.74
2018-06-09T09:24:39.832Z,1008.79
2018-06-09T09:25:39.873Z,1008.7
2018-06-09T09:26:39.910Z,1008.78
2018-06-09T09:27:39.943Z,1008.85
2018-06-09T09:29:40.018Z,1008.73
2018-06-09T09:30:40.058Z,1008.72
2018-06-09T09:31:40.091Z,1008.71
2018-06-09T09:32:40.132Z,1008.76
2018-06-09T09:33:40.165Z,1008.67
2018-06-09T09:34:40.211Z,1008.73
2018-06-09T09:35:40.239Z,1008.71
2018-06-09T09:36:40.280Z,1008.7
2018-06-09T09:37:40.313Z,1008.81
2018-06-09T09:38:40.352Z,1008.77
2018-06-09T09:39:40.385Z,1008.78
2018-06-09T09:40:40.426Z,1008.75
2018-06-09T09:41:40.463Z,1008.77
2018-06-09T09:42:40.499Z,1008.76
2018-06-09T09:43:40.537Z,1008.77
2018-06-09T09:45:40.609Z,1008.74
2018-06-09T09:46:40.640Z,1008.72
2018-06-09T09:47:40.678Z,1008.76
2018-06-09T09:48:40.718Z,1008.76
2018-06-09T09:49:40.754Z,1008.75
2018-06-09T09:50:40.786Z,1008.75
2018-06-09T09:51:40.828Z,1008.77
2018-06-09T09:52:40.863Z,1008.81
2018-06-09T09:53:40.900Z,1008.72
2018-06-09T09:54:40.932Z,1008.7
2018-06-09T09:55:40.972Z,1008.76
2018-06-09T09:56:41.003Z,1008.77
2018-06-09T09:57:41.045Z,1008.74
2018-06-09T09:58:41.075Z,1008.75
2018-06-09T09:59:41.116Z,1008.75
2018-06-09T10:01:41.185Z,1008.78
2018-06-09T10:02:41.226Z,1008.72
2018-06-09T10:03:41.254Z,1008.71
2018-06-09T10:04:41.360Z,1008.72
2018-06-09T10:05:41.333Z,1008.68
2018-06-09T10:06:41.364Z,1008.71
2018-06-09T10:07:41.402Z,1008.71
2018-06-09T10:08:41.441Z,1008.71
2018-06-09T10:09:41.477Z,1008.68
2018-06-09T10:10:41.513Z,1008.72
2018-06-09T10:11:41.546Z,1008.73
2018-06-09T10:12:41.588Z,1008.72
2018-06-09T10:13:41.618Z,1008.66
2018-06-09T10:14:41.661Z,1008.64
2018-06-09T10:16:41.729Z,1008.57
2018-06-09T10:17:41.764Z,1008.6
2018-06-09T10:18:41.795Z,1008.6
2018-06-09T10:19:41.836Z,1008.63
2018-06-09T10:20:41.867Z,1008.61
2018-06-09T10:21:41.906Z,1008.54
2018-06-09T10:22:41.941Z,1008.58
2018-06-09T10:23:41.978Z,1008.53
2018-06-09T10:24:42.008Z,1008.51
2018-06-09T10:25:42.048Z,1008.54
2018-06-09T10:26:42.080Z,1008.51
2018-06-09T10:27:42.116Z,1008.44
2018-06-09T10:28:42.154Z,1008.47
2018-06-09T10:29:42.190Z,1008.41
2018-06-09T10:30:42.221Z,1008.42
2018-06-09T10:31:42.278Z,1008.4
2018-06-09T10:32:42.300Z,1008.4
2018-06-09T10:33:42.331Z,1008.46
2018-06-09T10:34:42.363Z,1008.44
2018-06-09T10:35:42.401Z,1008.38
2018-06-09T10:36:42.433Z,1008.41
2018-06-09T10:37:42.470Z,1008.36
2018-06-09T10:38:42.555Z,1008.41
2018-06-09T10:39:42.542Z,1008.35
2018-06-09T10:40:42.577Z,1008.36
2018-06-09T10:41:42.608Z,1008.28
2018-06-09T10:42:42.648Z,1008.29
2018-06-09T10:43:42.694Z,1008.41
2018-06-09T10:44:42.713Z,1008.33
2018-06-09T10:45:42.752Z,1008.26
2018-06-09T10:46:42.887Z,1008.25
2018-06-09T10:48:42.853Z,1008.36
2018-06-09T10:49:42.891Z,1008.26
2018-06-09T10:50:42.921Z,1008.22
2018-06-09T10:51:42.956Z,1008.34
2018-06-09T10:52:42.990Z,1008.32
2018-06-09T10:53:43.030Z,1008.23
2018-06-09T10:54:43.064Z,1008.29
2018-06-09T10:55:43.095Z,1008.27
2018-06-09T10:56:43.129Z,1008.26
2018-06-09T10:57:43.167Z,1008.27
2018-06-09T10:58:43.201Z,1008.27
2018-06-09T10:59:43.236Z,1008.19
2018-06-09T11:00:43.266Z,1008.33
2018-06-09T11:01:43.299Z,1008.27
2018-06-09T11:02:43.436Z,1008.27
2018-06-09T11:04:43.406Z,1008.27
2018-06-09T11:05:43.436Z,1008.22
2018-06-09T11:06:43.474Z,1008.19
2018-06-09T11:07:43.504Z,1008.21
2018-06-09T11:08:43.537Z,1008.2
2018-06-09T11:09:43.571Z,1008.15
2018-06-09T11:10:43.610Z,1008.18
2018-06-09T11:11:43.644Z,1008.23
2018-06-09T11:12:43.672Z,1008.25
2018-06-09T11:13:43.711Z,1008.29
2018-06-09T11:14:43.740Z,1008.24
2018-06-09T11:15:43.779Z,1008.2
2018-06-09T11:16:43.808Z,1008.17
2018-06-09T11:17:43.852Z,1008.18
2018-06-09T11:18:43.980Z,1008.2
2018-06-09T11:20:43.942Z,1008.18
2018-06-09T11:21:43.976Z,1008.16
2018-06-09T11:22:44.014Z,1008.2
2018-06-09T11:23:44.143Z,1008.16
2018-06-09T11:24:44.081Z,1008.16
2018-06-09T11:25:44.110Z,1008.15
2018-06-09T11:26:44.148Z,1008.18
2018-06-09T11:27:44.180Z,1008.13
2018-06-09T11:28:44.218Z,1008.07
2018-06-09T11:29:44.247Z,1008.04
2018-06-09T11:30:44.281Z,1008.07
2018-06-09T11:31:44.310Z,1008.09
2018-06-09T11:32:44.343Z,1008.06
2018-06-09T11:33:44.377Z,1008.08
2018-06-09T11:34:44.416Z,1008.14
2018-06-09T11:36:44.476Z,1008.15
2018-06-09T11:37:44.514Z,1008.08
2018-06-09T11:38:44.542Z,1008.07
2018-06-09T11:39:44.579Z,1008.03
2018-06-09T11:40:44.609Z,1008.01
2018-06-09T11:41:44.646Z,1008.04
2018-06-09T11:42:44.675Z,1008.01
2018-06-09T11:43:44.712Z,1008.07
2018-06-09T11:44:44.742Z,1008.05
2018-06-09T11:45:44.779Z,1008.03
2018-06-09T11:46:44.811Z,1007.96
2018-06-09T11:47:44.840Z,1007.91
2018-06-09T11:48:44.878Z,1007.89
2018-06-09T11:49:44.907Z,1007.91
2018-06-09T11:51:44.974Z,1007.88
2018-06-09T11:52:45.011Z,1007.87
2018-06-09T11:53:45.040Z,1007.81
2018-06-09T11:54:45.077Z,1007.81
2018-06-09T11:55:45.110Z,1007.83
2018-06-09T11:56:45.148Z,1007.82
2018-06-09T11:57:45.170Z,1007.78
2018-06-09T11:58:45.211Z,1007.83
2018-06-09T11:59:45.237Z,1007.76
2018-06-09T12:00:45.269Z,1007.78
2018-06-09T12:01:45.350Z,1007.75
2018-06-09T12:02:45.340Z,1007.7
2018-06-09T12:03:45.372Z,1007.71
2018-06-09T12:04:45.400Z,1007.62
2018-06-09T12:05:45.446Z,1007.65
2018-06-09T12:06:45.467Z,1007.68
2018-06-09T12:07:45.499Z,1007.63
2018-06-09T12:08:45.535Z,1007.7
2018-06-09T12:09:45.570Z,1007.73
2018-06-09T12:10:45.601Z,1007.73
2018-06-09T12:11:45.629Z,1007.7
2018-06-09T12:12:45.667Z,1007.67
2018-06-09T12:13:45.698Z,1007.67
2018-06-09T12:14:45.732Z,1007.67
2018-06-09T12:15:45.772Z,1007.68
2018-06-09T12:16:45.799Z,1007.62
2018-06-09T12:17:45.832Z,1007.61
2018-06-09T12:18:45.859Z,1007.65
2018-06-09T12:19:45.896Z,1007.61
2018-06-09T12:20:45.926Z,1007.61
2018-06-09T12:21:45.960Z,1007.64
2018-06-09T12:23:46.024Z,1007.66
2018-06-09T12:24:46.056Z,1007.64
2018-06-09T12:25:46.093Z,1007.65
2018-06-09T12:26:46.120Z,1007.61
2018-06-09T12:27:46.158Z,1007.63
2018-06-09T12:28:46.191Z,1007.6
2018-06-09T12:29:46.219Z,1007.57
2018-06-09T12:30:46.257Z,1007.56
2018-06-09T12:31:46.285Z,1007.6
2018-06-09T12:32:46.321Z,1007.56
2018-06-09T12:33:46.349Z,1007.57
2018-06-09T12:34:46.386Z,1007.57
2018-06-09T12:35:46.414Z,1007.6
2018-06-09T12:36:46.451Z,1007.57
2018-06-09T12:37:46.483Z,1007.57
2018-06-09T12:39:46.549Z,1007.51
2018-06-09T12:40:46.577Z,1007.48
2018-06-09T12:41:46.618Z,1007.48
2018-06-09T12:42:46.641Z,1007.54
2018-06-09T12:43:46.681Z,1007.48
2018-06-09T12:44:46.705Z,1007.53
2018-06-09T12:45:46.743Z,1007.51
2018-06-09T12:46:46.771Z,1007.51
2018-06-09T12:47:46.808Z,1007.47
2018-06-09T12:48:46.872Z,1007.45